Time;durP1;ratioP1;P1;durP2;ratioP2;P2;SDS_P1;SDS_P2;PMS_P1;PMS_P2;Temp;Humidity;BMP_temperature;BMP_pressure;BME280_temperature;BME280_humidity;BME280_pressure;Samples;Min_cycle;Max_cycle;Signal;HPM_P1;HPM_P2
2021/04/06 00:00:22;;;;;;;20.60;2.85;;;3.40;99.90;;;;;;5071297;28;20499;-70
2021/04/06 00:02:51;;;;;;;17.45;2.70;;;3.30;99.90;;;;;;5058981;28;20047;-71
2021/04/06 00:05:19;;;;;;;29.90;3.53;;;3.30;99.90;;;;;;5059975;28;20115;-71
2021/04/06 00:07:47;;;;;;;21.13;3.40;;;3.20;99.90;;;;;;5055573;28;20021;-69
2021/04/06 00:10:37;;;;;;;23.05;2.58;;;3.10;99.90;;;;;;5067830;28;20378;-71
2021/04/06 00:13:04;;;;;;;19.02;2.15;;;3.10;99.90;;;;;;5063448;28;20029;-70
2021/04/06 00:15:31;;;;;;;17.27;2.42;;;3.20;99.90;;;;;;5075518;28;20056;-71
2021/04/06 00:18:00;;;;;;;12.57;1.83;;;3.20;99.90;;;;;;5054606;28;20021;-71
2021/04/06 00:20:28;;;;;;;17.15;2.70;;;3.30;99.90;;;;;;5066228;28;20082;-72
2021/04/06 00:22:55;;;;;;;15.55;2.13;;;3.20;99.90;;;;;;5073590;28;20056;-72
2021/04/06 00:25:26;;;;;;;17.35;2.80;;;3.30;99.90;;;;;;5072882;28;20037;-72
2021/04/06 00:27:52;;;;;;;20.95;2.35;;;3.20;99.90;;;;;;5074202;28;20031;-72
2021/04/06 00:30:40;;;;;;;13.82;1.83;;;3.20;99.90;;;;;;5073330;28;20074;-70
2021/04/06 00:33:12;;;;;;;11.02;1.30;;;3.20;99.90;;;;;;5072890;28;20074;-71
2021/04/06 00:35:39;;;;;;;9.40;1.15;;;3.30;99.90;;;;;;5073598;28;20379;-71
2021/04/06 00:38:08;;;;;;;9.07;1.85;;;3.30;99.90;;;;;;5073669;28;20393;-70
2021/04/06 00:40:39;;;;;;;6.60;1.20;;;3.30;99.90;;;;;;5073452;28;20020;-70
2021/04/06 00:43:05;;;;;;;11.23;1.63;;;3.50;99.90;;;;;;5074082;28;20028;-70
2021/04/06 00:45:40;;;;;;;8.30;1.10;;;3.30;99.90;;;;;;5073445;28;20028;-72
2021/04/06 00:48:19;;;;;;;4.88;0.75;;;3.00;99.90;;;;;;5073908;28;20032;-71
2021/04/06 00:51:08;;;;;;;5.68;1.30;;;2.80;99.90;;;;;;5060912;28;20020;-71
2021/04/06 00:53:52;;;;;;;7.60;1.65;;;2.60;99.90;;;;;;5074002;28;20036;-70
2021/04/06 00:56:18;;;;;;;6.28;0.82;;;2.50;99.90;;;;;;5074611;28;20056;-70
2021/04/06 00:58:48;;;;;;;9.40;1.15;;;2.40;99.90;;;;;;5074712;28;20079;-71
2021/04/06 01:01:15;;;;;;;;;;;2.40;99.90;;;;;;5073828;28;20110;-70
2021/04/06 01:03:41;;;;;;;16.27;1.65;;;2.30;99.90;;;;;;5074406;28;20011;-70
2021/04/06 01:06:08;;;;;;;6.38;1.02;;;2.20;99.90;;;;;;5074064;28;20104;-70
2021/04/06 01:08:40;;;;;;;15.75;2.17;;;2.20;99.90;;;;;;5073807;28;20487;-71
2021/04/06 01:11:06;;;;;;;12.43;1.60;;;2.10;99.90;;;;;;5074069;28;20029;-71
2021/04/06 01:13:35;;;;;;;11.38;2.05;;;2.10;99.90;;;;;;5074221;28;20468;-71
2021/04/06 01:16:02;;;;;;;13.45;2.20;;;2.20;99.90;;;;;;5034590;28;20488;-70
2021/04/06 01:18:28;;;;;;;9.70;1.45;;;2.00;99.90;;;;;;5053233;28;20054;-71
2021/04/06 01:20:55;;;;;;;6.95;1.60;;;2.00;99.90;;;;;;5069111;28;20480;-71
2021/04/06 01:23:24;;;;;;;16.60;1.92;;;1.90;99.90;;;;;;5073026;28;20520;-71
2021/04/06 01:25:56;;;;;;;12.07;2.22;;;1.90;99.90;;;;;;5073600;28;20036;-71
2021/04/06 01:28:30;;;;;;;20.48;2.22;;;1.90;99.90;;;;;;5072548;28;20068;-71
2021/04/06 01:30:57;;;;;;;15.70;2.38;;;1.80;99.90;;;;;;5073456;28;20537;-71
2021/04/06 01:33:29;;;;;;;24.25;3.83;;;2.00;99.90;;;;;;5073419;28;20032;-71
2021/04/06 01:36:00;;;;;;;18.60;2.45;;;2.10;99.90;;;;;;5072823;28;20039;-71
2021/04/06 01:38:27;;;;;;;9.20;2.60;;;2.30;99.90;;;;;;5073015;28;20028;-71
2021/04/06 01:40:59;;;;;;;16.13;2.38;;;2.20;99.90;;;;;;5073977;28;20036;-71
2021/04/06 01:43:30;;;;;;;20.92;2.45;;;2.40;99.90;;;;;;5072507;28;20060;-71
2021/04/06 01:45:58;;;;;;;18.38;2.33;;;2.50;99.90;;;;;;5073878;28;20025;-71
2021/04/06 01:48:28;;;;;;;9.68;1.77;;;2.50;99.90;;;;;;5059123;28;20159;-71
2021/04/06 01:50:55;;;;;;;15.60;1.80;;;2.60;99.90;;;;;;5073235;28;20020;-71
2021/04/06 01:53:22;;;;;;;10.93;2.20;;;2.70;99.90;;;;;;5073239;28;20068;-71
2021/04/06 01:55:53;;;;;;;14.93;2.17;;;2.70;99.90;;;;;;5073128;28;20102;-71
2021/04/06 01:58:21;;;;;;;20.85;2.75;;;2.70;99.90;;;;;;5073429;28;20021;-71
2021/04/06 02:03:17;;;;;;;8.45;1.58;;;2.70;99.90;;;;;;5072402;28;20049;-70
2021/04/06 02:05:45;;;;;;;12.43;1.90;;;2.80;99.90;;;;;;5070025;28;20059;-72
2021/04/06 02:08:15;;;;;;;11.85;2.08;;;2.90;99.90;;;;;;5063023;28;20345;-71
2021/04/06 02:10:42;;;;;;;17.10;2.30;;;2.90;99.90;;;;;;5072144;28;20043;-70
2021/04/06 02:13:12;;;;;;;9.30;1.60;;;2.90;99.90;;;;;;5072250;28;20385;-71
2021/04/06 02:15:56;;;;;;;9.00;2.35;;;2.80;99.90;;;;;;5071751;28;20074;-71
2021/04/06 02:18:29;;;;;;;15.30;1.92;;;2.60;99.90;;;;;;5062961;28;20027;-71
2021/04/06 02:20:56;;;;;;;12.10;2.22;;;2.50;99.90;;;;;;5072204;28;20440;-71
2021/04/06 02:23:23;;;;;;;9.98;2.28;;;2.40;99.90;;;;;;5071999;28;20037;-71
2021/04/06 02:25:56;;;;;;;10.30;1.45;;;2.30;99.90;;;;;;5071576;28;20033;-71
2021/04/06 02:28:23;;;;;;;9.95;1.60;;;2.10;99.90;;;;;;5071547;28;20464;-71
2021/04/06 02:30:54;;;;;;;13.63;3.63;;;2.10;99.90;;;;;;5072308;28;20464;-71
2021/04/06 02:33:38;;;;;;;9.13;1.67;;;2.00;99.90;;;;;;5071145;28;20066;-71
2021/04/06 02:36:08;;;;;;;9.05;1.10;;;1.90;99.90;;;;;;5058980;28;20108;-70
2021/04/06 02:38:38;;;;;;;17.10;2.05;;;1.90;99.90;;;;;;5071647;28;20037;-71
2021/04/06 02:41:07;;;;;;;10.63;1.50;;;1.90;99.90;;;;;;5072297;28;20060;-71
2021/04/06 02:43:48;;;;;;;7.38;1.75;;;1.90;99.90;;;;;;5072636;28;20025;-71
2021/04/06 02:46:21;;;;;;;5.70;1.45;;;2.10;99.90;;;;;;5058409;28;20067;-71
2021/04/06 02:48:48;;;;;;;5.95;1.13;;;2.30;99.90;;;;;;5072542;28;20039;-71
2021/04/06 02:51:15;;;;;;;10.68;2.10;;;2.40;99.90;;;;;;5058456;28;20020;-70
2021/04/06 02:53:41;;;;;;;9.88;1.42;;;2.50;99.90;;;;;;5071877;28;20021;-70
2021/04/06 02:56:07;;;;;;;7.22;2.00;;;2.40;99.90;;;;;;5071831;28;20017;-71
2021/04/06 02:58:37;;;;;;;5.57;1.05;;;2.30;99.90;;;;;;5072131;28;20032;-71
2021/04/06 03:01:16;;;;;;;7.37;1.23;;;2.20;99.90;;;;;;5071685;28;20028;-72
2021/04/06 03:03:42;;;;;;;9.27;1.58;;;2.10;99.90;;;;;;5072061;28;20298;-72
2021/04/06 03:06:13;;;;;;;6.45;1.38;;;2.00;99.90;;;;;;5071413;28;20052;-71
2021/04/06 03:08:41;;;;;;;7.72;1.40;;;1.90;99.90;;;;;;5071016;28;20102;-71
2021/04/06 03:11:11;;;;;;;9.02;1.25;;;1.70;99.90;;;;;;5071017;28;20034;-71
2021/04/06 03:13:43;;;;;;;8.85;1.30;;;1.60;99.90;;;;;;5070829;28;20101;-71
2021/04/06 03:16:09;;;;;;;8.63;1.20;;;1.50;99.90;;;;;;5071009;28;20108;-71
2021/04/06 03:18:40;;;;;;;5.43;1.42;;;1.40;99.90;;;;;;5071053;28;20028;-71
2021/04/06 03:21:10;;;;;;;5.43;1.63;;;1.40;99.90;;;;;;5070482;28;20052;-71
2021/04/06 03:23:36;;;;;;;8.07;1.20;;;1.30;99.90;;;;;;5071324;28;20074;-71
2021/04/06 03:26:04;;;;;;;10.50;1.20;;;1.30;99.90;;;;;;5071353;28;20032;-71
2021/04/06 03:28:35;;;;;;;14.82;1.95;;;1.40;99.90;;;;;;5070836;28;20024;-70
2021/04/06 03:31:21;;;;;;;9.98;1.63;;;1.50;99.90;;;;;;5071517;28;20074;-70
2021/04/06 03:33:48;;;;;;;17.33;2.60;;;1.60;99.90;;;;;;5071093;28;20036;-70
2021/04/06 03:36:32;;;;;;;6.78;1.40;;;1.70;99.90;;;;;;5070494;28;20411;-71
2021/04/06 03:39:00;;;;;;;13.07;1.48;;;1.80;99.90;;;;;;5070454;28;20028;-70
2021/04/06 03:41:30;;;;;;;5.50;1.52;;;1.70;99.90;;;;;;5070229;28;20020;-70
2021/04/06 03:44:09;;;;;;;14.30;2.25;;;1.70;99.90;;;;;;5071058;28;20090;-70
2021/04/06 03:46:37;;;;;;;16.35;1.48;;;1.60;99.90;;;;;;5071012;28;20498;-72
2021/04/06 03:49:18;;;;;;;8.00;1.48;;;1.60;99.90;;;;;;5070569;28;20479;-72
2021/04/06 03:51:56;;;;;;;10.52;1.55;;;1.50;99.90;;;;;;5071335;28;20121;-71
2021/04/06 03:54:38;;;;;;;4.05;1.20;;;1.40;99.90;;;;;;5071604;28;20025;-71
2021/04/06 03:57:33;;;;;;;14.23;1.33;;;1.40;99.90;;;;;;5070575;28;20028;-71
2021/04/06 03:59:58;;;;;;;21.33;2.53;;;1.30;99.90;;;;;;5071736;28;20025;-71
2021/04/06 04:02:24;;;;;;;13.52;2.08;;;1.30;99.90;;;;;;5070600;28;20060;-71
2021/04/06 04:04:52;;;;;;;13.75;2.03;;;1.20;99.90;;;;;;5070735;28;20131;-70
2021/04/06 04:07:17;;;;;;;7.07;1.38;;;1.20;99.90;;;;;;5056181;28;20017;-70
2021/04/06 04:09:43;;;;;;;12.82;2.08;;;1.10;99.90;;;;;;5070160;28;20028;-70
2021/04/06 04:12:09;;;;;;;8.13;1.60;;;1.10;99.90;;;;;;5070757;28;20150;-70
2021/04/06 04:14:34;;;;;;;6.53;1.17;;;1.10;99.90;;;;;;5070641;28;20099;-70
2021/04/06 04:17:00;;;;;;;13.52;2.80;;;1.10;99.90;;;;;;5070120;28;20043;-70
2021/04/06 04:19:26;;;;;;;8.57;2.03;;;1.10;99.90;;;;;;5070121;28;20024;-71
2021/04/06 04:21:52;;;;;;;5.80;1.40;;;1.10;99.90;;;;;;5070511;28;20035;-70
2021/04/06 04:24:17;;;;;;;5.03;1.25;;;1.10;99.90;;;;;;5069764;28;20037;-71
2021/04/06 04:26:43;;;;;;;8.02;1.58;;;1.00;99.90;;;;;;5070825;28;20025;-70
2021/04/06 04:29:09;;;;;;;10.05;1.83;;;1.10;99.90;;;;;;5070493;28;20035;-71
2021/04/06 04:31:34;;;;;;;8.98;2.33;;;1.10;99.90;;;;;;5069975;28;20032;-70
2021/04/06 04:34:00;;;;;;;5.72;1.50;;;1.20;99.90;;;;;;5064099;28;20086;-70
2021/04/06 04:36:25;;;;;;;9.13;1.20;;;1.20;99.90;;;;;;5063479;28;20067;-71
2021/04/06 04:38:51;;;;;;;10.43;1.42;;;1.40;99.90;;;;;;5070718;28;20021;-72
2021/04/06 04:41:16;;;;;;;6.43;0.93;;;1.60;99.90;;;;;;5070921;28;20426;-71
2021/04/06 04:43:42;;;;;;;8.38;1.08;;;1.60;99.90;;;;;;5056933;28;20382;-70
2021/04/06 04:46:08;;;;;;;5.90;0.82;;;1.60;99.90;;;;;;5070566;28;20033;-70
2021/04/06 04:48:33;;;;;;;7.80;1.55;;;1.60;99.90;;;;;;5057685;28;20025;-71
2021/04/06 04:50:59;;;;;;;10.38;1.27;;;1.70;99.90;;;;;;5075280;28;20067;-71
2021/04/06 04:53:25;;;;;;;11.10;1.42;;;1.70;99.90;;;;;;5075449;28;20024;-70
2021/04/06 04:55:51;;;;;;;6.25;0.75;;;1.80;99.90;;;;;;5074567;28;20156;-70
2021/04/06 04:58:16;;;;;;;5.72;1.05;;;1.80;99.90;;;;;;5074226;28;20024;-71
2021/04/06 05:00:42;;;;;;;6.47;0.80;;;1.80;99.90;;;;;;5072389;28;20095;-70
2021/04/06 05:03:07;;;;;;;5.45;0.50;;;1.70;99.90;;;;;;5073145;28;20044;-70
2021/04/06 05:05:36;;;;;;;7.55;0.90;;;1.70;99.90;;;;;;5070288;28;20041;-70
2021/04/06 05:08:02;;;;;;;13.40;1.23;;;1.60;99.90;;;;;;5061772;28;20024;-70
2021/04/06 05:10:27;;;;;;;6.95;1.05;;;1.50;99.90;;;;;;5070407;28;20029;-75
2021/04/06 05:12:53;;;;;;;15.85;1.20;;;1.40;99.90;;;;;;5072302;28;20040;-74
2021/04/06 05:15:18;;;;;;;12.88;1.30;;;1.30;99.90;;;;;;5073616;28;20020;-75
2021/04/06 05:17:44;;;;;;;7.53;1.23;;;1.20;99.90;;;;;;5051405;28;20025;-73
2021/04/06 05:20:10;;;;;;;1.67;0.90;;;1.10;99.90;;;;;;5072808;28;20115;-74
2021/04/06 05:22:36;;;;;;;6.53;0.80;;;1.10;99.90;;;;;;5073934;28;20423;-74
2021/04/06 05:25:04;;;;;;;9.80;1.00;;;1.00;99.90;;;;;;5073994;28;20036;-73
2021/04/06 05:27:29;;;;;;;13.25;1.35;;;1.00;99.90;;;;;;5073449;28;20020;-74
2021/04/06 05:29:55;;;;;;;3.78;1.20;;;0.90;99.90;;;;;;5074044;28;20043;-75
2021/04/06 05:32:20;;;;;;;7.45;1.38;;;0.80;99.90;;;;;;5064038;28;20016;-74
2021/04/06 05:34:46;;;;;;;2.80;0.80;;;0.80;99.90;;;;;;5061065;28;20115;-74
2021/04/06 05:37:12;;;;;;;5.45;1.38;;;0.80;99.90;;;;;;5073770;28;20066;-74
2021/04/06 05:39:38;;;;;;;3.88;1.73;;;0.70;99.90;;;;;;5073689;28;20021;-74
2021/04/06 05:42:04;;;;;;;6.15;1.13;;;0.80;99.90;;;;;;5073173;28;20023;-74
2021/04/06 05:44:30;;;;;;;4.90;1.08;;;0.90;99.90;;;;;;5073841;28;20491;-73
2021/04/06 05:46:59;;;;;;;15.60;1.65;;;1.00;99.90;;;;;;5074207;28;20025;-73
2021/04/06 05:49:33;;;;;;;11.38;1.08;;;1.20;99.90;;;;;;5071214;28;20032;-73
2021/04/06 05:51:59;;;;;;;7.45;1.45;;;1.80;99.90;;;;;;5072497;28;20020;-73
2021/04/06 05:54:26;;;;;;;5.70;1.23;;;1.60;99.90;;;;;;5072091;28;20384;-73
2021/04/06 05:56:51;;;;;;;9.02;1.23;;;1.60;99.90;;;;;;5072371;28;20020;-73
2021/04/06 05:59:17;;;;;;;4.18;1.05;;;1.70;99.90;;;;;;5072097;28;20027;-73
2021/04/06 06:01:46;;;;;;;8.82;2.78;;;1.70;99.90;;;;;;5071116;28;20036;-73
2021/04/06 06:04:14;;;;;;;6.80;1.05;;;1.80;99.90;;;;;;5072409;28;20036;-72
2021/04/06 06:06:40;;;;;;;10.25;1.25;;;1.70;99.90;;;;;;5073789;28;20469;-73
2021/04/06 06:09:08;;;;;;;5.60;1.00;;;1.70;99.90;;;;;;5073108;28;20035;-72
2021/04/06 06:11:58;;;;;;;6.35;1.70;;;1.70;99.90;;;;;;5073482;28;20486;-74
2021/04/06 06:14:27;;;;;;;4.35;0.88;;;1.60;99.90;;;;;;5073178;28;20335;-73
2021/04/06 06:16:52;;;;;;;11.80;1.40;;;1.60;99.90;;;;;;5073587;28;20056;-74
2021/04/06 06:19:18;;;;;;;6.47;0.88;;;1.50;99.90;;;;;;5067489;28;20028;-74
2021/04/06 06:21:52;;;;;;;4.97;0.98;;;1.50;99.90;;;;;;5068991;28;20381;-72
2021/04/06 06:24:26;;;;;;;8.88;2.28;;;1.50;99.90;;;;;;5072415;28;20488;-73
2021/04/06 06:26:52;;;;;;;5.93;1.13;;;1.40;99.90;;;;;;5073177;28;20032;-72
2021/04/06 06:29:23;;;;;;;11.05;0.88;;;1.40;99.90;;;;;;5073339;28;20063;-73
2021/04/06 06:31:54;;;;;;;5.18;1.33;;;1.40;99.90;;;;;;5072291;28;20024;-72
2021/04/06 06:34:34;;;;;;;9.43;1.20;;;1.40;99.90;;;;;;5072620;28;20035;-73
2021/04/06 06:37:06;;;;;;;10.77;3.00;;;1.40;99.90;;;;;;5072773;28;20078;-74
2021/04/06 06:39:37;;;;;;;8.05;1.30;;;1.50;99.90;;;;;;5072049;28;20782;-74
2021/04/06 06:42:11;;;;;;;11.95;1.67;;;1.60;99.90;;;;;;5072572;28;20073;-73
2021/04/06 06:44:38;;;;;;;2.53;1.30;;;1.70;99.90;;;;;;5072237;28;20036;-73
2021/04/06 06:47:18;;;;;;;9.38;1.70;;;1.90;99.90;;;;;;5072756;28;20024;-73
2021/04/06 06:49:44;;;;;;;7.93;1.88;;;1.90;99.90;;;;;;5073257;28;20024;-73
2021/04/06 06:52:22;;;;;;;8.68;1.10;;;1.90;99.90;;;;;;5071877;28;20079;-72
2021/04/06 06:54:51;;;;;;;7.30;0.90;;;1.80;99.90;;;;;;5072728;28;20494;-73
2021/04/06 06:57:16;;;;;;;3.95;0.90;;;1.70;99.90;;;;;;5058200;28;20103;-72
2021/04/06 06:59:47;;;;;;;11.23;2.65;;;1.80;99.90;;;;;;5072270;28;20025;-73
2021/04/06 07:02:22;;;;;;;7.57;1.58;;;1.10;99.90;;;;;;5071968;28;20044;-73
2021/04/06 07:04:51;;;;;;;13.57;2.88;;;1.80;99.90;;;;;;5072729;28;20036;-72
2021/04/06 07:07:17;;;;;;;8.05;1.00;;;1.80;99.90;;;;;;5071516;28;20112;-72
2021/04/06 07:09:47;;;;;;;7.65;1.48;;;1.90;99.90;;;;;;5072608;28;20024;-73
2021/04/06 07:12:14;;;;;;;11.48;1.73;;;2.00;99.90;;;;;;5072245;28;20024;-73
2021/04/06 07:14:41;;;;;;;10.13;1.85;;;2.10;99.90;;;;;;5071464;28;20017;-73
2021/04/06 07:17:07;;;;;;;7.22;0.77;;;2.30;99.90;;;;;;5072218;28;20055;-73
2021/04/06 07:19:37;;;;;;;18.83;1.67;;;2.40;99.90;;;;;;5071892;28;20023;-73
2021/04/06 07:22:04;;;;;;;7.95;1.20;;;2.60;99.90;;;;;;5073078;28;20426;-72
2021/04/06 07:24:36;;;;;;;16.85;1.85;;;2.90;99.90;;;;;;5074358;28;20167;-73
2021/04/06 07:27:21;;;;;;;7.03;1.45;;;3.10;99.90;;;;;;5068522;28;20055;-73
2021/04/06 07:29:47;;;;;;;10.68;1.50;;;3.20;99.90;;;;;;5057376;28;20108;-73
2021/04/06 07:32:14;;;;;;;8.77;1.60;;;3.30;99.90;;;;;;5067858;28;20384;-73
2021/04/06 07:34:41;;;;;;;7.00;1.23;;;3.20;99.90;;;;;;5071377;28;20492;-73
2021/04/06 07:37:07;;;;;;;13.02;1.20;;;3.20;99.90;;;;;;5055101;28;20075;-73
2021/04/06 07:39:33;;;;;;;7.53;1.15;;;3.00;99.90;;;;;;5056282;28;20539;-73
2021/04/06 07:42:00;;;;;;;6.53;1.70;;;3.00;99.90;;;;;;5057472;28;20021;-73
2021/04/06 07:44:26;;;;;;;12.35;1.70;;;3.10;99.90;;;;;;5045939;28;20033;-73
2021/04/06 07:46:52;;;;;;;9.85;1.95;;;3.20;99.90;;;;;;5052968;28;20017;-73
2021/04/06 07:49:20;;;;;;;8.30;1.15;;;3.30;99.90;;;;;;5056902;28;20027;-73
2021/04/06 07:51:46;;;;;;;7.80;1.38;;;3.40;99.90;;;;;;5055542;28;20041;-70
2021/04/06 07:54:23;;;;;;;9.93;1.77;;;3.60;99.90;;;;;;5058681;28;20380;-73
2021/04/06 07:57:15;;;;;;;5.28;1.17;;;3.70;99.90;;;;;;5053783;28;20049;-72
2021/04/06 07:59:49;;;;;;;11.57;0.70;;;4.00;99.90;;;;;;5053658;28;20029;-74
2021/04/06 08:02:15;;;;;;;5.57;1.33;;;4.10;99.90;;;;;;5053018;28;20443;-73
2021/04/06 08:04:43;;;;;;;9.77;2.08;;;4.20;99.90;;;;;;5056120;28;20020;-73
2021/04/06 08:07:23;;;;;;;9.75;1.15;;;4.30;99.90;;;;;;5054554;28;20052;-73
2021/04/06 08:09:50;;;;;;;8.88;1.80;;;4.40;99.90;;;;;;5068735;28;20031;-73
2021/04/06 08:12:25;;;;;;;13.50;1.55;;;4.60;99.90;;;;;;5071137;28;20036;-73
2021/04/06 08:14:52;;;;;;;7.00;1.02;;;4.80;99.90;;;;;;5071525;28;20060;-74
2021/04/06 08:17:24;;;;;;;7.15;1.55;;;5.00;99.90;;;;;;5068625;28;20861;-74
2021/04/06 08:20:04;;;;;;;5.25;1.42;;;5.10;99.90;;;;;;5078060;28;20454;-73
2021/04/06 08:22:50;;;;;;;2.92;1.00;;;5.20;99.90;;;;;;5064841;28;20104;-74
2021/04/06 08:25:18;;;;;;;8.63;1.33;;;4.90;99.90;;;;;;5075895;28;20044;-73
2021/04/06 08:27:46;;;;;;;5.13;1.52;;;4.50;99.90;;;;;;5077535;28;20020;-72
2021/04/06 08:30:18;;;;;;;2.70;0.95;;;4.10;99.90;;;;;;5071248;28;20040;-73
2021/04/06 08:32:56;;;;;;;4.68;1.05;;;3.60;99.90;;;;;;5087340;28;20705;-74
2021/04/06 08:35:47;;;;;;;5.55;0.70;;;2.70;99.90;;;;;;5086233;28;20554;-73
2021/04/06 08:38:35;;;;;;;4.72;0.60;;;3.00;99.90;;;;;;5078639;28;20032;-73
2021/04/06 08:41:05;;;;;;;2.72;0.47;;;2.90;99.90;;;;;;5085903;28;20395;-73
2021/04/06 08:43:41;;;;;;;9.30;0.80;;;2.80;99.90;;;;;;5088308;28;20047;-73
2021/04/06 08:46:47;;;;;;;3.03;0.90;;;2.70;99.90;;;;;;5071108;28;20037;-73
2021/04/06 08:49:23;;;;;;;1.00;0.80;;;2.70;99.90;;;;;;5064686;28;20146;-73
2021/04/06 08:51:54;;;;;;;1.92;0.47;;;2.70;99.90;;;;;;5077439;28;20431;-73
2021/04/06 08:54:31;;;;;;;4.82;0.70;;;2.60;99.90;;;;;;5070585;28;20020;-72
2021/04/06 08:56:59;;;;;;;1.50;0.50;;;2.60;99.90;;;;;;5065880;28;20169;-74
2021/04/06 08:59:35;;;;;;;5.45;0.70;;;2.70;99.90;;;;;;5067910;28;20081;-74
2021/04/06 09:02:05;;;;;;;1.00;0.50;;;2.70;99.90;;;;;;5074119;28;20080;-74
2021/04/06 09:04:33;;;;;;;4.57;0.65;;;2.90;99.90;;;;;;5073355;28;20036;-73
2021/04/06 09:06:59;;;;;;;5.20;1.13;;;3.00;99.90;;;;;;5072407;28;20012;-75
2021/04/06 09:09:31;;;;;;;6.93;0.70;;;3.20;99.90;;;;;;5075209;28;20116;-74
2021/04/06 09:11:59;;;;;;;7.20;1.55;;;3.40;99.90;;;;;;5068445;28;20031;-73
2021/04/06 09:14:27;;;;;;;5.13;1.05;;;3.60;99.90;;;;;;5069810;28;20035;-74
2021/04/06 09:16:56;;;;;;;7.20;1.63;;;3.90;99.90;;;;;;5074814;28;20028;-73
2021/04/06 09:19:24;;;;;;;10.05;1.48;;;4.20;99.90;;;;;;5067740;28;20020;-73
2021/04/06 09:21:55;;;;;;;10.38;1.65;;;4.60;99.90;;;;;;5069707;28;20029;-73
2021/04/06 09:24:23;;;;;;;9.80;2.33;;;4.90;99.90;;;;;;5066375;28;20032;-74
2021/04/06 09:26:51;;;;;;;11.93;2.03;;;5.20;99.90;;;;;;5067672;28;20133;-73
2021/04/06 09:29:21;;;;;;;7.05;1.00;;;5.40;99.90;;;;;;5066505;28;20062;-73
2021/04/06 09:31:53;;;;;;;4.27;1.13;;;5.20;99.90;;;;;;5070676;28;20055;-72
2021/04/06 09:34:33;;;;;;;4.93;1.85;;;4.90;99.90;;;;;;5043529;28;20303;-72
2021/04/06 09:37:02;;;;;;;6.43;1.17;;;4.40;99.90;;;;;;5069569;28;20032;-73
2021/04/06 09:39:29;;;;;;;8.65;1.00;;;4.20;99.90;;;;;;5065687;28;20077;-73
2021/04/06 09:42:02;;;;;;;2.72;0.85;;;4.10;99.90;;;;;;5070757;28;20522;-72
2021/04/06 09:44:33;;;;;;;4.03;0.75;;;3.90;99.90;;;;;;5070777;28;20040;-72
2021/04/06 09:47:02;;;;;;;9.00;2.35;;;3.90;99.90;;;;;;5065649;28;20468;-73
2021/04/06 09:49:33;;;;;;;1.38;0.80;;;3.50;99.90;;;;;;5067714;28;20012;-73
2021/04/06 09:52:01;;;;;;;2.08;0.90;;;3.40;99.90;;;;;;5079300;28;20040;-73
2021/04/06 09:54:36;;;;;;;3.83;0.80;;;3.40;99.90;;;;;;5078263;28;20099;-72
2021/04/06 09:57:09;;;;;;;5.43;1.73;;;3.20;99.90;;;;;;5084505;28;20024;-71
2021/04/06 09:59:39;;;;;;;3.00;0.75;;;3.30;99.90;;;;;;5084718;28;20093;-72
2021/04/06 10:02:13;;;;;;;3.55;0.50;;;3.40;99.90;;;;;;5082694;28;20400;-71
2021/04/06 10:04:48;;;;;;;4.72;1.30;;;3.60;99.90;;;;;;5084827;28;20024;-73
2021/04/06 10:07:19;;;;;;;4.05;0.68;;;3.70;99.90;;;;;;5087675;28;20020;-73
2021/04/06 10:09:48;;;;;;;7.38;1.13;;;3.90;99.90;;;;;;5084968;28;20031;-73
2021/04/06 10:12:16;;;;;;;2.60;1.08;;;4.20;99.90;;;;;;5088603;28;20031;-72
2021/04/06 10:14:43;;;;;;;5.03;0.80;;;4.60;99.90;;;;;;5089091;28;20093;-73
2021/04/06 10:17:16;;;;;;;5.03;1.20;;;4.90;99.90;;;;;;5083295;28;20503;-73
2021/04/06 10:19:54;;;;;;;6.72;1.75;;;4.60;99.90;;;;;;5078458;28;20081;-73
2021/04/06 10:22:19;;;;;;;2.67;0.82;;;3.80;99.90;;;;;;5073286;28;20473;-74
2021/04/06 10:24:59;;;;;;;3.75;1.20;;;3.40;99.90;;;;;;5077052;28;20087;-74
2021/04/06 10:27:36;;;;;;;3.47;1.33;;;3.10;99.90;;;;;;5080133;28;20028;-73
2021/04/06 10:30:06;;;;;;;5.47;1.33;;;3.10;99.90;;;;;;5076722;28;20086;-73
2021/04/06 10:32:33;;;;;;;4.88;0.80;;;2.90;99.90;;;;;;5077271;28;20385;-73
2021/04/06 10:35:14;;;;;;;9.80;1.17;;;2.80;99.90;;;;;;5077275;28;20036;-74
2021/04/06 10:37:46;;;;;;;6.15;1.63;;;2.70;99.90;;;;;;5072229;28;20039;-74
2021/04/06 10:40:37;;;;;;;5.43;0.88;;;2.70;99.90;;;;;;5082865;28;20344;-74
2021/04/06 10:43:12;;;;;;;4.50;1.15;;;2.70;99.90;;;;;;5074935;28;20072;-74
2021/04/06 10:45:46;;;;;;;8.52;1.17;;;2.60;99.90;;;;;;5085456;28;20040;-74
2021/04/06 10:48:18;;;;;;;5.15;0.90;;;2.70;99.90;;;;;;5079444;28;20031;-74
2021/04/06 10:50:48;;;;;;;7.40;1.05;;;2.80;99.90;;;;;;5084451;28;20019;-74
2021/04/06 10:53:16;;;;;;;5.75;2.15;;;3.00;99.90;;;;;;5088177;28;20102;-72
2021/04/06 10:55:41;;;;;;;4.38;1.27;;;3.20;99.90;;;;;;5083412;28;20016;-73
2021/04/06 10:58:08;;;;;;;7.30;1.35;;;3.40;99.90;;;;;;5088091;28;20028;-72
2021/04/06 11:00:37;;;;;;;3.50;0.95;;;3.70;99.90;;;;;;5085634;28;20020;-73
2021/04/06 11:03:13;;;;;;;8.98;2.00;;;4.10;99.90;;;;;;5085994;28;20083;-73
2021/04/06 11:05:39;;;;;;;5.88;1.40;;;4.70;99.90;;;;;;5082743;28;20032;-74
2021/04/06 11:08:23;;;;;;;11.13;1.17;;;5.10;99.90;;;;;;5087504;28;20101;-74
2021/04/06 11:10:54;;;;;;;8.45;0.93;;;5.40;99.90;;;;;;5084925;28;20028;-73
2021/04/06 11:13:19;;;;;;;4.35;1.02;;;5.20;99.90;;;;;;5086710;28;20107;-74
2021/04/06 11:15:46;;;;;;;3.25;0.90;;;4.40;99.90;;;;;;5086739;28;20448;-73
2021/04/06 11:18:12;;;;;;;3.13;0.60;;;3.60;99.90;;;;;;5085637;28;20030;-73
2021/04/06 11:20:38;;;;;;;1.92;0.60;;;3.10;99.90;;;;;;5088520;28;20365;-73
2021/04/06 11:23:04;;;;;;;1.58;0.40;;;2.90;99.90;;;;;;5084955;28;20506;-74
2021/04/06 11:25:33;;;;;;;10.63;0.47;;;2.80;99.90;;;;;;5084286;28;20028;-73
2021/04/06 11:28:01;;;;;;;3.15;0.63;;;2.70;99.90;;;;;;5087381;28;20024;-74
2021/04/06 11:30:32;;;;;;;4.32;1.20;;;2.70;99.90;;;;;;5087278;28;20095;-73
2021/04/06 11:33:02;;;;;;;5.68;0.85;;;2.80;99.90;;;;;;5088104;28;20031;-73
2021/04/06 11:35:28;;;;;;;2.63;0.70;;;2.80;99.90;;;;;;5079925;28;20082;-74
2021/04/06 11:37:55;;;;;;;3.67;0.90;;;2.90;99.90;;;;;;5090812;28;20047;-73
2021/04/06 11:40:21;;;;;;;11.65;1.70;;;3.00;99.90;;;;;;5086703;28;20032;-73
2021/04/06 11:42:47;;;;;;;6.82;0.82;;;3.20;99.90;;;;;;5088069;28;20081;-73
2021/04/06 11:45:12;;;;;;;7.57;1.13;;;3.40;99.90;;;;;;5083330;28;20071;-73
2021/04/06 11:47:38;;;;;;;4.78;1.23;;;3.70;99.90;;;;;;5088375;28;20023;-73
2021/04/06 11:50:06;;;;;;;8.95;1.55;;;4.00;99.90;;;;;;5088260;28;20028;-74
2021/04/06 11:52:33;;;;;;;10.63;1.45;;;4.20;99.90;;;;;;5079640;28;20025;-73
2021/04/06 11:54:59;;;;;;;5.55;1.20;;;4.40;99.90;;;;;;5088924;28;20384;-73
2021/04/06 11:57:25;;;;;;;6.60;1.10;;;4.60;99.90;;;;;;5083890;28;20469;-73
2021/04/06 11:59:52;;;;;;;8.18;1.30;;;4.70;99.90;;;;;;5088183;28;20051;-73
2021/04/06 12:02:18;;;;;;;4.15;1.25;;;4.70;99.90;;;;;;5091960;28;20048;-72
2021/04/06 12:04:44;;;;;;;3.22;0.80;;;4.50;99.90;;;;;;5092981;28;20035;-74
2021/04/06 12:07:09;;;;;;;5.78;1.02;;;4.40;99.90;;;;;;5091291;28;20101;-73
2021/04/06 12:09:35;;;;;;;5.50;1.20;;;4.20;99.90;;;;;;5090276;28;20020;-73
2021/04/06 12:12:02;;;;;;;3.65;0.93;;;4.10;99.90;;;;;;5090935;28;20048;-73
2021/04/06 12:14:27;;;;;;;9.25;1.38;;;4.00;99.90;;;;;;5089401;28;20025;-73
2021/04/06 12:16:53;;;;;;;4.75;1.00;;;3.90;99.90;;;;;;5087443;28;20031;-74
2021/04/06 12:19:18;;;;;;;10.80;2.22;;;3.90;99.90;;;;;;5064148;28;20020;-72
2021/04/06 12:21:44;;;;;;;8.20;0.80;;;3.90;99.90;;;;;;5073217;28;20472;-72
2021/04/06 12:24:10;;;;;;;4.95;1.23;;;4.10;99.90;;;;;;5073100;28;20091;-73
2021/04/06 12:26:36;;;;;;;5.30;1.17;;;4.20;99.90;;;;;;5079419;28;20120;-73
2021/04/06 12:29:04;;;;;;;6.25;0.90;;;4.40;99.90;;;;;;5080172;28;20109;-73
2021/04/06 12:31:30;;;;;;;4.57;1.02;;;4.60;99.90;;;;;;5075840;28;20358;-74
2021/04/06 12:33:56;;;;;;;8.38;0.77;;;4.70;99.90;;;;;;5066511;28;20055;-74
2021/04/06 12:36:23;;;;;;;6.20;0.70;;;5.00;99.90;;;;;;5084907;28;20476;-75
2021/04/06 12:38:48;;;;;;;8.23;0.85;;;5.40;99.90;;;;;;5086095;28;20020;-73
2021/04/06 12:41:14;;;;;;;10.30;1.02;;;5.60;99.90;;;;;;5090877;28;20023;-73
2021/04/06 12:43:40;;;;;;;3.55;1.00;;;5.60;99.90;;;;;;5087903;28;20032;-74
2021/04/06 12:46:05;;;;;;;4.28;0.90;;;5.60;99.90;;;;;;5070053;28;20058;-74
2021/04/06 12:48:31;;;;;;;7.82;1.15;;;5.60;99.90;;;;;;5069148;28;20060;-73
2021/04/06 12:50:56;;;;;;;10.70;2.03;;;5.00;99.90;;;;;;5078678;28;20029;-74
2021/04/06 12:53:25;;;;;;;4.85;0.70;;;4.60;99.90;;;;;;5071021;28;20524;-74
2021/04/06 12:55:51;;;;;;;3.60;0.80;;;4.30;99.90;;;;;;5075434;28;20029;-74
2021/04/06 12:58:16;;;;;;;0.93;0.38;;;4.10;99.90;;;;;;5070577;28;20058;-73
2021/04/06 13:00:42;;;;;;;5.35;1.23;;;4.20;99.90;;;;;;5069335;28;20067;-73
2021/04/06 13:03:07;;;;;;;3.63;0.63;;;4.30;99.90;;;;;;5072990;28;20488;-73
2021/04/06 13:05:33;;;;;;;1.25;0.50;;;4.40;99.90;;;;;;5047032;28;20115;-74
2021/04/06 13:07:59;;;;;;;2.80;0.68;;;4.40;99.90;;;;;;5072886;28;20043;-73
2021/04/06 13:10:24;;;;;;;3.05;0.98;;;4.20;99.90;;;;;;5070825;28;20036;-73